createdAt,value
2023-03-10T00:00:00.484Z,4.37
2023-03-10T00:02:30.599Z,3.17
2023-03-10T00:04:57.003Z,3.00
2023-03-10T00:07:23.346Z,2.77
2023-03-10T00:09:49.723Z,2.57
2023-03-10T00:12:16.091Z,3.27
2023-03-10T00:14:42.426Z,2.60
2023-03-10T00:17:08.789Z,3.37
2023-03-10T00:19:35.213Z,4.97
2023-03-10T00:22:03.603Z,2.90
2023-03-10T00:24:29.960Z,3.30
2023-03-10T00:26:56.282Z,3.17
2023-03-10T00:29:22.647Z,2.67
2023-03-10T00:31:49.003Z,3.37
2023-03-10T00:34:15.332Z,3.23
2023-03-10T00:36:41.664Z,3.10
2023-03-10T00:39:11.865Z,2.83
2023-03-10T00:41:41.688Z,4.37
2023-03-10T00:44:09.480Z,5.00
2023-03-10T00:46:38.533Z,4.47
2023-03-10T00:49:07.121Z,2.93
2023-03-10T00:51:34.883Z,3.07
2023-03-10T00:54:02.723Z,3.57
2023-03-10T00:56:29.929Z,3.13
2023-03-10T00:58:59.037Z,3.17
2023-03-10T01:01:30.464Z,3.10
2023-03-10T01:04:00.263Z,2.60
2023-03-10T01:06:27.444Z,3.83
2023-03-10T01:08:54.518Z,2.73
2023-03-10T01:11:24.012Z,2.70
2023-03-10T01:13:51.451Z,2.40
2023-03-10T01:16:18.338Z,2.73
2023-03-10T01:18:44.944Z,2.77
2023-03-10T01:21:18.317Z,2.23
2023-03-10T01:23:44.902Z,1.97
2023-03-10T01:26:11.630Z,2.17
2023-03-10T01:28:38.416Z,3.00
2023-03-10T01:31:07.645Z,2.60
2023-03-10T01:33:35.928Z,2.77
2023-03-10T01:36:07.920Z,2.30
2023-03-10T01:38:34.261Z,3.20
2023-03-10T01:41:00.779Z,2.97
2023-03-10T01:43:34.946Z,3.67
2023-03-10T01:46:01.302Z,4.07
2023-03-10T01:48:35.901Z,4.33
2023-03-10T01:51:03.528Z,4.87
2023-03-10T01:53:30.494Z,5.70
2023-03-10T01:56:02.604Z,5.23
2023-03-10T01:58:37.873Z,4.97
2023-03-10T02:01:06.634Z,5.30
2023-03-10T02:03:40.910Z,5.83
2023-03-10T02:06:14.909Z,6.70
2023-03-10T02:08:45.899Z,7.00
2023-03-10T02:11:14.633Z,5.60
2023-03-10T02:13:42.078Z,4.00
2023-03-10T02:16:08.820Z,3.10
2023-03-10T02:18:35.323Z,2.10
2023-03-10T02:21:13.494Z,1.87
2023-03-10T02:24:01.691Z,2.07
2023-03-10T02:26:56.029Z,2.73
2023-03-10T02:29:45.458Z,2.97
2023-03-10T02:32:19.458Z,3.23
2023-03-10T02:34:45.853Z,3.50
2023-03-10T02:37:19.675Z,3.70
2023-03-10T02:39:46.723Z,4.67
2023-03-10T02:42:13.052Z,4.20
2023-03-10T02:44:39.835Z,4.57
2023-03-10T02:47:06.297Z,4.50
2023-03-10T02:49:35.220Z,6.93
2023-03-10T02:52:07.544Z,7.20
2023-03-10T02:54:33.874Z,7.30
2023-03-10T02:57:00.253Z,6.20
2023-03-10T02:59:26.884Z,5.83
2023-03-10T03:01:53.914Z,5.10
2023-03-10T03:04:20.475Z,4.10
2023-03-10T03:06:47.014Z,4.47
2023-03-10T03:09:13.804Z,4.50
2023-03-10T03:11:40.428Z,6.53
2023-03-10T03:14:08.796Z,7.87
2023-03-10T03:16:35.612Z,8.27
2023-03-10T03:19:05.577Z,8.73
2023-03-10T03:21:31.995Z,7.87
2023-03-10T03:23:58.930Z,6.27
2023-03-10T03:26:26.948Z,7.23
2023-03-10T03:29:00.207Z,7.70
2023-03-10T03:31:30.425Z,10.17
2023-03-10T03:34:10.287Z,9.27
2023-03-10T03:36:37.899Z,8.37
2023-03-10T03:39:08.950Z,8.70
2023-03-10T03:41:36.855Z,8.43
2023-03-10T03:44:04.105Z,8.37
2023-03-10T03:46:32.837Z,7.83
2023-03-10T03:49:00.028Z,6.87
2023-03-10T03:51:27.193Z,6.63
2023-03-10T03:53:53.693Z,6.63
2023-03-10T03:56:21.360Z,6.50
2023-03-10T03:58:47.812Z,6.90
2023-03-10T04:01:14.688Z,6.50
2023-03-10T04:03:46.242Z,6.90
2023-03-10T04:06:15.729Z,6.37
2023-03-10T04:08:43.215Z,5.57
2023-03-10T04:11:09.835Z,6.13
2023-03-10T04:13:40.017Z,7.17
2023-03-10T04:16:07.737Z,6.30
2023-03-10T04:18:36.302Z,5.97
2023-03-10T04:21:03.418Z,6.77
2023-03-10T04:23:30.597Z,6.90
2023-03-10T04:25:57.504Z,5.40
2023-03-10T04:28:24.260Z,5.07
2023-03-10T04:30:51.167Z,5.87
2023-03-10T04:33:21.914Z,5.50
2023-03-10T04:35:51.232Z,6.83
2023-03-10T04:38:19.253Z,8.03
2023-03-10T04:40:53.526Z,7.73
2023-03-10T04:43:20.709Z,7.00
2023-03-10T04:45:48.439Z,7.33
2023-03-10T04:48:15.518Z,7.80
2023-03-10T04:50:42.456Z,7.50
2023-03-10T04:53:09.870Z,7.00
2023-03-10T04:55:36.304Z,6.33
2023-03-10T04:58:04.710Z,3.80
2023-03-10T05:00:32.024Z,3.80
2023-03-10T05:02:58.674Z,3.57
2023-03-10T05:05:25.244Z,3.07
2023-03-10T05:07:51.626Z,2.63
2023-03-10T05:10:19.216Z,2.63
2023-03-10T05:12:45.855Z,2.20
2023-03-10T05:15:12.541Z,1.93
2023-03-10T05:17:38.961Z,2.33
2023-03-10T05:20:08.754Z,1.60
2023-03-10T05:22:37.218Z,2.23
2023-03-10T05:25:05.104Z,2.13
2023-03-10T05:27:35.947Z,1.90
2023-03-10T05:30:05.015Z,1.70
2023-03-10T05:32:34.341Z,2.50
2023-03-10T05:35:01.156Z,2.07
2023-03-10T05:37:27.560Z,2.70
2023-03-10T05:39:54.619Z,3.83
2023-03-10T05:42:22.207Z,2.33
2023-03-10T05:44:49.278Z,2.00
2023-03-10T05:47:18.935Z,2.43
2023-03-10T05:49:46.260Z,2.07
2023-03-10T05:52:12.729Z,2.37
2023-03-10T05:54:40.524Z,1.70
2023-03-10T05:57:06.988Z,1.90
2023-03-10T05:59:33.482Z,2.13
2023-03-10T06:02:00.029Z,1.53
2023-03-10T06:04:28.320Z,2.00
2023-03-10T06:06:55.992Z,1.93
2023-03-10T06:09:22.399Z,2.20
2023-03-10T06:11:48.756Z,2.07
2023-03-10T06:14:15.063Z,2.07
2023-03-10T06:16:41.484Z,2.37
2023-03-10T06:19:07.844Z,2.17
2023-03-10T06:21:34.177Z,3.57
2023-03-10T06:24:00.602Z,2.97
2023-03-10T06:26:26.983Z,2.43
2023-03-10T06:28:53.314Z,3.00
2023-03-10T06:31:22.971Z,2.40
2023-03-10T06:33:49.339Z,3.50
2023-03-10T06:36:16.383Z,4.43
2023-03-10T06:38:43.027Z,6.37
2023-03-10T06:41:10.039Z,3.27
2023-03-10T06:43:36.963Z,2.53
2023-03-10T06:46:05.700Z,2.63
2023-03-10T06:48:32.353Z,2.70
2023-03-10T06:50:58.928Z,3.07
2023-03-10T06:53:26.875Z,2.90
2023-03-10T06:56:12.024Z,2.63
2023-03-10T06:58:38.641Z,2.50
2023-03-10T07:01:06.837Z,2.23
2023-03-10T07:03:34.374Z,2.33
2023-03-10T07:06:00.866Z,2.47
2023-03-10T07:08:28.525Z,2.30
2023-03-10T07:10:55.857Z,2.57
2023-03-10T07:13:22.249Z,2.43
2023-03-10T07:15:48.810Z,1.97
2023-03-10T07:18:15.563Z,2.23
2023-03-10T07:20:44.946Z,2.70
2023-03-10T07:23:11.998Z,1.80
2023-03-10T07:25:39.169Z,2.67
2023-03-10T07:28:06.569Z,2.43
2023-03-10T07:30:34.048Z,1.93
2023-03-10T07:33:00.508Z,2.80
2023-03-10T07:35:26.917Z,2.50
2023-03-10T07:37:53.260Z,2.17
2023-03-10T07:40:24.650Z,2.47
2023-03-10T07:42:54.328Z,2.50
2023-03-10T07:45:22.449Z,2.03
2023-03-10T07:47:50.776Z,2.20
2023-03-10T07:50:17.990Z,1.90
2023-03-10T07:52:44.352Z,2.60
2023-03-10T07:55:10.839Z,2.53
2023-03-10T07:57:37.247Z,1.70
2023-03-10T08:00:05.571Z,2.40
2023-03-10T08:02:38.483Z,2.50
2023-03-10T08:05:05.346Z,2.27
2023-03-10T08:07:31.900Z,2.13
2023-03-10T08:09:58.367Z,2.10
2023-03-10T08:12:24.719Z,2.60
2023-03-10T08:14:52.051Z,2.60
2023-03-10T08:17:19.606Z,2.63
2023-03-10T08:19:45.960Z,2.50
2023-03-10T08:22:12.577Z,2.73
2023-03-10T08:24:39.377Z,2.73
2023-03-10T08:27:05.854Z,2.00
2023-03-10T08:29:32.540Z,2.20
2023-03-10T08:31:58.966Z,2.30
2023-03-10T08:34:25.308Z,2.43
2023-03-10T08:36:51.668Z,2.37
2023-03-10T08:39:18.129Z,2.90
2023-03-10T08:41:48.966Z,2.23
2023-03-10T08:44:17.849Z,2.07
2023-03-10T08:46:46.877Z,2.47
2023-03-10T08:49:15.424Z,3.67
2023-03-10T08:51:42.116Z,2.70
2023-03-10T08:54:09.032Z,2.37
2023-03-10T08:56:35.417Z,2.60
2023-03-10T08:59:01.869Z,3.03
2023-03-10T09:01:31.941Z,2.17
2023-03-10T09:03:59.270Z,3.03
2023-03-10T09:06:26.376Z,2.10
2023-03-10T09:08:52.784Z,2.77
2023-03-10T09:11:26.192Z,3.13
2023-03-10T09:13:52.894Z,2.33
2023-03-10T09:16:19.282Z,3.30
2023-03-10T09:18:45.797Z,2.83
2023-03-10T09:21:14.764Z,2.90
2023-03-10T09:23:43.174Z,2.23
2023-03-10T09:26:09.650Z,3.40
2023-03-10T09:28:36.224Z,2.60
2023-03-10T09:31:07.967Z,3.50
2023-03-10T09:33:35.494Z,2.97
2023-03-10T09:36:07.402Z,2.87
2023-03-10T09:38:35.314Z,2.93
2023-03-10T09:41:13.796Z,2.87
2023-03-10T09:43:50.301Z,2.20
2023-03-10T09:46:30.272Z,2.80
2023-03-10T09:49:05.881Z,2.83
2023-03-10T09:51:32.300Z,2.63
2023-03-10T09:54:06.237Z,2.87
2023-03-10T09:56:34.670Z,3.67
2023-03-10T09:59:24.718Z,2.33
2023-03-10T10:01:53.769Z,2.93
2023-03-10T10:04:31.666Z,3.57
2023-03-10T10:06:59.062Z,2.87
2023-03-10T10:09:41.976Z,4.37
2023-03-10T10:12:13.426Z,3.50
2023-03-10T10:14:47.936Z,3.50
2023-03-10T10:18:02.938Z,3.23
2023-03-10T10:20:58.917Z,2.80
2023-03-10T10:23:38.588Z,2.60
2023-03-10T10:26:12.015Z,2.67
2023-03-10T10:28:56.706Z,2.73
2023-03-10T10:31:29.265Z,2.30
2023-03-10T10:34:19.988Z,2.97
2023-03-10T10:36:52.642Z,2.70
2023-03-10T10:39:32.158Z,2.83
2023-03-10T10:42:24.876Z,2.27
2023-03-10T10:44:56.706Z,2.20
2023-03-10T10:47:28.449Z,2.67
2023-03-10T10:50:08.374Z,2.70
2023-03-10T10:52:34.797Z,2.27
2023-03-10T10:55:02.318Z,2.37
2023-03-10T10:57:32.820Z,2.77
2023-03-10T11:00:32.000Z,2.77
2023-03-10T11:02:58.797Z,2.47
2023-03-10T11:05:33.719Z,2.33
2023-03-10T11:08:30.379Z,2.43
2023-03-10T11:11:04.068Z,2.23
2023-03-10T11:14:07.273Z,4.50
2023-03-10T11:16:59.925Z,3.47
2023-03-10T11:19:51.853Z,2.33
2023-03-10T11:22:39.737Z,2.03
2023-03-10T11:25:24.522Z,2.10
2023-03-10T11:28:21.618Z,4.60
2023-03-10T11:31:13.162Z,1.87
2023-03-10T11:34:01.048Z,2.70
2023-03-10T11:36:53.469Z,2.03
2023-03-10T11:39:31.892Z,2.40
2023-03-10T11:42:10.416Z,2.33
2023-03-10T11:45:13.750Z,2.10
2023-03-10T11:47:58.664Z,4.03
2023-03-10T11:50:41.772Z,2.33
2023-03-10T11:53:19.825Z,2.93
2023-03-10T11:55:48.568Z,2.77
2023-03-10T11:58:24.024Z,2.90
2023-03-10T12:00:53.676Z,2.47
2023-03-10T12:03:42.121Z,1.90
2023-03-10T12:06:15.984Z,2.20
2023-03-10T12:08:42.594Z,1.90
2023-03-10T12:11:16.733Z,1.40
2023-03-10T12:13:47.501Z,1.17
2023-03-10T12:16:26.923Z,1.53
2023-03-10T12:18:53.662Z,1.43
2023-03-10T12:21:27.966Z,1.70
2023-03-10T12:23:56.666Z,1.90
2023-03-10T12:26:38.124Z,2.37
2023-03-10T12:29:19.725Z,2.07
2023-03-10T12:31:51.425Z,1.90
2023-03-10T12:34:23.545Z,3.80
2023-03-10T12:36:54.653Z,3.87
2023-03-10T12:39:38.530Z,3.57
2023-03-10T12:42:28.890Z,4.03
2023-03-10T12:45:08.124Z,1.83
2023-03-10T12:47:55.187Z,2.53
2023-03-10T12:50:48.877Z,2.67
2023-03-10T12:53:39.488Z,2.93
2023-03-10T12:56:19.963Z,3.87
2023-03-10T12:58:54.725Z,2.80
2023-03-10T13:01:25.131Z,2.70
2023-03-10T13:03:53.449Z,2.40
2023-03-10T13:06:22.023Z,2.97
2023-03-10T13:08:53.551Z,3.20
2023-03-10T13:11:19.834Z,2.13
2023-03-10T13:13:53.044Z,2.47
2023-03-10T13:16:20.832Z,1.70
2023-03-10T13:18:56.329Z,1.53
2023-03-10T13:21:31.580Z,1.40
2023-03-10T13:24:00.369Z,1.87
2023-03-10T13:26:27.168Z,1.77
2023-03-10T13:29:02.240Z,1.20
2023-03-10T13:31:31.327Z,1.60
2023-03-10T13:34:12.192Z,2.13
2023-03-10T13:36:40.028Z,2.50
2023-03-10T13:39:16.910Z,2.80
2023-03-10T13:41:46.464Z,3.10
2023-03-10T13:44:27.449Z,3.77
2023-03-10T13:46:56.368Z,2.50
2023-03-10T13:49:26.138Z,2.83
2023-03-10T13:51:58.103Z,2.37
2023-03-10T13:54:28.320Z,4.23
2023-03-10T13:57:15.506Z,2.10
2023-03-10T13:59:42.305Z,2.20
2023-03-10T14:02:18.834Z,2.50
2023-03-10T14:04:50.656Z,2.63
2023-03-10T14:07:29.439Z,2.73
2023-03-10T14:10:04.658Z,2.70
2023-03-10T14:12:49.398Z,2.17
2023-03-10T14:15:18.781Z,4.63
2023-03-10T14:18:06.485Z,4.80
2023-03-10T14:20:34.241Z,4.63
2023-03-10T14:23:23.241Z,4.00
2023-03-10T14:25:54.444Z,3.03
2023-03-10T14:28:26.489Z,3.40
2023-03-10T14:30:53.925Z,4.13
2023-03-10T14:33:20.768Z,3.83
2023-03-10T14:35:47.653Z,4.67
2023-03-10T14:38:14.080Z,5.80
2023-03-10T14:40:49.217Z,3.87
2023-03-10T14:43:19.717Z,2.23
2023-03-10T14:45:48.496Z,1.70
2023-03-10T14:48:19.791Z,1.77
2023-03-10T14:50:47.408Z,1.13
2023-03-10T14:53:16.554Z,1.83
2023-03-10T14:55:47.591Z,1.83
2023-03-10T14:58:18.208Z,2.33
2023-03-10T15:00:44.585Z,3.20
2023-03-10T15:03:12.335Z,3.00
2023-03-10T15:05:48.371Z,2.90
2023-03-10T15:08:16.516Z,3.20
2023-03-10T15:10:47.870Z,2.70
2023-03-10T15:13:14.514Z,2.90
2023-03-10T15:15:43.274Z,2.83
2023-03-10T15:18:12.367Z,2.10
2023-03-10T15:20:38.713Z,2.30
2023-03-10T15:23:05.245Z,2.83
2023-03-10T15:25:31.647Z,2.87
2023-03-10T15:27:58.075Z,2.63
2023-03-10T15:30:31.024Z,3.03
2023-03-10T15:32:57.537Z,4.93
2023-03-10T15:35:24.302Z,5.17
2023-03-10T15:37:52.092Z,5.00
2023-03-10T15:40:24.679Z,5.43
2023-03-10T15:42:51.681Z,5.53
2023-03-10T15:45:18.831Z,7.37
2023-03-10T15:47:46.118Z,4.97
2023-03-10T15:50:14.009Z,4.73
2023-03-10T15:52:52.106Z,5.50
2023-03-10T15:55:18.682Z,4.40
2023-03-10T15:57:47.798Z,6.67
2023-03-10T16:00:16.810Z,4.23
2023-03-10T16:02:46.937Z,4.83
2023-03-10T16:05:13.786Z,4.60
2023-03-10T16:07:40.165Z,5.17
2023-03-10T16:10:09.855Z,4.67
2023-03-10T16:12:36.219Z,5.07
2023-03-10T16:15:02.593Z,4.87
2023-03-10T16:17:29.381Z,2.77
2023-03-10T16:19:55.892Z,1.90
2023-03-10T16:22:22.791Z,1.57
2023-03-10T16:24:49.114Z,1.77
2023-03-10T16:27:15.968Z,1.63
2023-03-10T16:29:42.822Z,1.37
2023-03-10T16:32:09.953Z,1.30
2023-03-10T16:34:36.339Z,1.60
2023-03-10T16:37:02.753Z,1.30
2023-03-10T16:39:32.558Z,1.40
2023-03-10T16:41:59.314Z,1.50
2023-03-10T16:44:26.082Z,1.90
2023-03-10T16:46:52.474Z,1.83
2023-03-10T16:49:19.013Z,2.00
2023-03-10T16:51:47.090Z,2.30
2023-03-10T16:54:17.865Z,3.53
2023-03-10T16:56:47.588Z,2.83
2023-03-10T16:59:19.980Z,2.60
2023-03-10T17:01:47.396Z,2.90
2023-03-10T17:04:13.873Z,3.47
2023-03-10T17:06:40.891Z,3.57
2023-03-10T17:09:09.119Z,4.13
2023-03-10T17:11:38.528Z,3.33
2023-03-10T17:14:07.619Z,3.87
2023-03-10T17:16:36.923Z,3.80
2023-03-10T17:19:10.263Z,4.83
2023-03-10T17:21:39.256Z,3.73
2023-03-10T17:24:07.639Z,4.20
2023-03-10T17:26:35.306Z,3.83
2023-03-10T17:29:01.703Z,4.50
2023-03-10T17:31:29.114Z,5.13
2023-03-10T17:34:00.013Z,4.50
2023-03-10T17:36:26.801Z,5.37
2023-03-10T17:38:58.714Z,5.77
2023-03-10T17:41:26.264Z,4.97
2023-03-10T17:43:54.229Z,5.60
2023-03-10T17:46:24.075Z,5.50
2023-03-10T17:48:53.661Z,5.10
2023-03-10T17:51:28.673Z,5.57
2023-03-10T17:53:57.929Z,4.10
2023-03-10T17:56:25.442Z,5.07
2023-03-10T17:58:56.801Z,5.30
2023-03-10T18:01:27.196Z,4.30
2023-03-10T18:03:56.003Z,4.40
2023-03-10T18:06:25.265Z,4.60
2023-03-10T18:08:53.709Z,4.73
2023-03-10T18:11:22.192Z,4.07
2023-03-10T18:13:48.983Z,4.67
2023-03-10T18:16:21.863Z,5.70
2023-03-10T18:18:48.473Z,5.40
2023-03-10T18:21:16.808Z,6.67
2023-03-10T18:23:43.780Z,5.70
2023-03-10T18:26:12.726Z,6.60
2023-03-10T18:28:39.900Z,5.37
2023-03-10T18:31:08.799Z,5.77
2023-03-10T18:33:35.804Z,5.93
2023-03-10T18:36:05.165Z,5.63
2023-03-10T18:38:31.557Z,5.80
2023-03-10T18:41:00.129Z,6.23
2023-03-10T18:43:28.985Z,5.00
2023-03-10T18:45:55.876Z,5.33
2023-03-10T18:48:25.513Z,4.77
2023-03-10T18:50:53.202Z,4.73
2023-03-10T18:53:19.705Z,5.07
2023-03-10T18:55:46.037Z,4.73
2023-03-10T18:58:12.456Z,4.93
2023-03-10T19:00:39.528Z,4.03
2023-03-10T19:03:06.173Z,4.70
2023-03-10T19:05:32.545Z,4.83
2023-03-10T19:07:58.985Z,5.00
2023-03-10T19:10:25.297Z,4.57
2023-03-10T19:12:51.666Z,5.77
2023-03-10T19:15:18.563Z,5.13
2023-03-10T19:17:45.592Z,5.53
2023-03-10T19:20:13.503Z,4.67
2023-03-10T19:22:40.214Z,5.93
2023-03-10T19:25:08.999Z,5.33
2023-03-10T19:27:39.654Z,6.27
2023-03-10T19:30:17.891Z,5.33
2023-03-10T19:32:44.844Z,6.67
2023-03-10T19:35:11.958Z,6.00
2023-03-10T19:37:39.326Z,5.53
2023-03-10T19:40:08.394Z,5.93
2023-03-10T19:42:36.807Z,5.93
2023-03-10T19:45:03.674Z,5.93
2023-03-10T19:47:30.955Z,5.23
2023-03-10T19:49:57.351Z,5.27
2023-03-10T19:52:23.876Z,6.07
2023-03-10T19:54:51.625Z,5.23
2023-03-10T19:57:18.021Z,5.60
2023-03-10T19:59:44.394Z,4.53
2023-03-10T20:02:15.502Z,5.87
2023-03-10T20:04:42.762Z,4.67
2023-03-10T20:07:09.531Z,5.13
2023-03-10T20:09:35.955Z,4.73
2023-03-10T20:12:02.848Z,4.00
2023-03-10T20:14:29.230Z,3.97
2023-03-10T20:16:55.664Z,3.43
2023-03-10T20:19:22.778Z,2.87
2023-03-10T20:21:50.453Z,4.40
2023-03-10T20:24:18.096Z,4.00
2023-03-10T20:26:44.747Z,3.70
2023-03-10T20:29:11.673Z,2.93
2023-03-10T20:31:38.338Z,4.23
2023-03-10T20:34:06.265Z,3.60
2023-03-10T20:36:33.093Z,3.37
2023-03-10T20:38:59.453Z,3.43
2023-03-10T20:41:25.850Z,4.47
2023-03-10T20:43:53.292Z,4.47
2023-03-10T20:46:19.959Z,5.70
2023-03-10T20:48:49.674Z,6.87
2023-03-10T20:51:18.645Z,6.80
2023-03-10T20:53:45.386Z,8.07
2023-03-10T20:56:12.154Z,9.00
2023-03-10T20:58:38.615Z,7.57
2023-03-10T21:01:05.323Z,8.30
2023-03-10T21:03:31.764Z,7.60
2023-03-10T21:05:58.157Z,8.23
2023-03-10T21:08:24.572Z,7.83
2023-03-10T21:10:51.557Z,10.20
2023-03-10T21:13:17.952Z,11.13
2023-03-10T21:15:44.323Z,10.13
2023-03-10T21:18:10.659Z,8.93
2023-03-10T21:20:36.968Z,7.70
2023-03-10T21:23:03.304Z,8.00
2023-03-10T21:25:29.781Z,8.73
2023-03-10T21:27:58.731Z,9.30
2023-03-10T21:30:30.029Z,9.43
2023-03-10T21:32:57.463Z,9.37
2023-03-10T21:35:25.353Z,10.43
2023-03-10T21:37:51.763Z,8.13
2023-03-10T21:40:20.157Z,7.67
2023-03-10T21:42:49.390Z,6.30
2023-03-10T21:45:21.455Z,6.70
2023-03-10T21:47:47.893Z,7.60
2023-03-10T21:50:15.403Z,7.20
2023-03-10T21:52:42.164Z,6.93
2023-03-10T21:55:15.887Z,8.07
2023-03-10T21:57:42.254Z,6.50
2023-03-10T22:00:09.602Z,8.50
2023-03-10T22:02:37.101Z,7.57
2023-03-10T22:05:06.048Z,7.47
2023-03-10T22:07:33.462Z,7.43
2023-03-10T22:09:59.827Z,7.27
2023-03-10T22:12:26.194Z,8.73
2023-03-10T22:14:56.224Z,8.60
2023-03-10T22:17:23.940Z,8.10
2023-03-10T22:19:51.692Z,7.47
2023-03-10T22:22:18.023Z,7.23
2023-03-10T22:24:44.356Z,6.37
2023-03-10T22:27:10.711Z,6.97
2023-03-10T22:29:37.041Z,5.67
2023-03-10T22:32:04.357Z,5.27
2023-03-10T22:34:30.835Z,5.30
2023-03-10T22:36:57.291Z,6.10
2023-03-10T22:39:24.452Z,6.07
2023-03-10T22:41:50.830Z,5.00
2023-03-10T22:44:17.248Z,5.80
2023-03-10T22:46:45.161Z,5.97
2023-03-10T22:49:11.814Z,5.83
2023-03-10T22:51:38.866Z,4.57
2023-03-10T22:54:05.250Z,4.53
2023-03-10T22:56:31.565Z,4.57
2023-03-10T22:58:57.960Z,4.23
2023-03-10T23:01:24.308Z,4.33
2023-03-10T23:03:50.732Z,4.50
2023-03-10T23:06:17.157Z,3.40
2023-03-10T23:08:43.883Z,4.33
2023-03-10T23:11:12.083Z,3.83
2023-03-10T23:13:38.602Z,5.23
2023-03-10T23:16:05.543Z,5.10
2023-03-10T23:18:31.932Z,7.37
2023-03-10T23:20:58.655Z,5.63
2023-03-10T23:23:24.998Z,5.20
2023-03-10T23:25:51.767Z,4.70
2023-03-10T23:28:20.468Z,4.00
2023-03-10T23:30:48.497Z,4.00
2023-03-10T23:33:19.103Z,3.47
2023-03-10T23:35:46.307Z,3.40
2023-03-10T23:38:12.840Z,3.37
2023-03-10T23:40:39.156Z,3.30
2023-03-10T23:43:08.032Z,3.17
2023-03-10T23:45:36.560Z,3.67
2023-03-10T23:48:06.107Z,3.37
2023-03-10T23:50:35.576Z,3.00
2023-03-10T23:53:03.490Z,3.50
2023-03-10T23:55:34.013Z,3.13
2023-03-10T23:58:00.853Z,3.20
